Time;durP1;ratioP1;P1;durP2;ratioP2;P2;SDS_P1;SDS_P2;PMS_P1;PMS_P2;Temp;Humidity;BMP_temperature;BMP_pressure;BME280_temperature;BME280_humidity;BME280_pressure;Samples;Min_cycle;Max_cycle;Signal;HPM_P1;HPM_P2
2022/04/23 08:43:23;;;;;;;16.23;13.15;;;10.10;90.70;;;;;;6255019;22;20204;-86
2022/04/23 08:53:25;;;;;;;17.70;14.27;;;10.70;89.40;;;;;;6222097;23;20141;-87
2022/04/23 09:03:15;;;;;;;16.17;13.23;;;10.50;90.40;;;;;;6222105;23;20601;-88
2022/04/23 09:06:14;;;;;;;16.10;13.50;;;10.90;89.50;;;;;;6226016;23;20563;-90
2022/04/23 09:26:15;;;;;;;13.65;12.25;;;11.40;85.20;;;;;;6289700;22;20202;-88
2022/04/23 09:32:27;;;;;;;13.23;11.48;;;12.10;79.10;;;;;;6297400;22;20198;-92
2022/04/23 09:42:29;;;;;;;12.00;10.35;;;12.60;75.60;;;;;;6259232;22;20157;-89
2022/04/23 14:58:42;;;;;;;17.33;15.52;;;16.00;44.80;;;;;;6304199;22;20179;-89
2022/04/23 16:22:25;;;;;;;16.13;14.40;;;14.20;57.00;;;;;;6332021;22;20202;-92
2022/04/23 16:54:04;;;;;;;18.65;15.15;;;13.70;65.00;;;;;;6325597;22;20269;-87
2022/04/23 16:56:42;;;;;;;18.17;16.25;;;13.60;65.30;;;;;;6291814;22;20171;-88
2022/04/23 16:59:12;;;;;;;18.83;16.35;;;13.50;65.90;;;;;;6311008;22;20203;-88
2022/04/23 17:01:39;;;;;;;18.98;17.08;;;13.50;66.60;;;;;;6307357;22;20275;-89
2022/04/23 17:04:18;;;;;;;19.45;17.17;;;13.40;67.50;;;;;;6304526;22;20269;-88
2022/04/23 17:06:56;;;;;;;18.20;15.98;;;13.30;71.20;;;;;;6310013;22;20227;-89
2022/04/23 17:16:28;;;;;;;20.35;16.70;;;13.00;73.00;;;;;;6302806;22;20233;-88
2022/04/23 17:18:56;;;;;;;21.00;17.67;;;12.90;75.20;;;;;;6305297;22;20204;-88
2022/04/23 17:21:31;;;;;;;19.88;17.23;;;12.90;75.80;;;;;;6304586;22;20203;-88
2022/04/23 17:24:01;;;;;;;19.35;17.23;;;12.90;75.80;;;;;;6308094;22;20196;-88
2022/04/23 17:26:55;;;;;;;19.35;17.25;;;12.90;75.80;;;;;;6307543;22;20225;-88
2022/04/23 17:29:28;;;;;;;18.92;16.92;;;12.90;75.80;;;;;;6309523;22;20215;-88
2022/04/23 17:31:56;;;;;;;19.95;16.40;;;12.90;75.80;;;;;;6306975;22;20256;-87
2022/04/23 17:38:54;;;;;;;19.23;17.15;;;12.80;75.70;;;;;;6303378;22;20198;-89
2022/04/23 17:41:12;;;;;;;23.70;17.90;;;12.80;75.70;;;;;;6307616;22;21468;-90
2022/04/23 17:43:40;;;;;;;20.73;18.02;;;12.80;75.70;;;;;;6308448;22;20195;-88
2022/04/23 17:46:10;;;;;;;19.73;17.67;;;12.70;75.60;;;;;;6282187;22;20203;-88
2022/04/23 17:48:47;;;;;;;22.55;17.77;;;12.80;75.70;;;;;;6311831;22;20208;-88
2022/04/23 17:51:18;;;;;;;20.13;17.20;;;12.70;75.70;;;;;;6289923;22;20532;-88
2022/04/23 17:53:51;;;;;;;21.83;17.83;;;12.60;77.00;;;;;;6291260;22;20168;-88
2022/04/23 17:56:52;;;;;;;22.58;18.30;;;12.60;78.30;;;;;;6289333;22;20203;-90
2022/04/23 17:59:32;;;;;;;19.73;17.60;;;12.50;78.60;;;;;;6289828;22;20175;-88
2022/04/23 18:08:44;;;;;;;22.75;18.83;;;12.30;81.00;;;;;;6165131;23;20563;-88
2022/04/23 18:11:52;;;;;;;24.00;18.50;;;12.20;81.20;;;;;;6166766;23;20184;-88
2022/04/23 18:14:26;;;;;;;21.70;18.38;;;12.20;82.20;;;;;;6139651;23;20235;-88
2022/04/23 18:16:59;;;;;;;21.58;18.05;;;12.10;82.20;;;;;;6165204;23;20171;-88
2022/04/23 18:19:31;;;;;;;23.23;18.50;;;12.10;83.20;;;;;;6166628;23;20182;-87
2022/04/23 18:25:31;;;;;;;22.55;19.00;;;12.00;84.20;;;;;;6162269;23;20186;-89
2022/04/23 18:28:11;;;;;;;23.20;18.75;;;11.90;84.20;;;;;;6139369;23;20183;-87
2022/04/23 18:30:41;;;;;;;21.27;17.83;;;11.90;84.70;;;;;;6163123;23;20680;-88
2022/04/23 18:33:08;;;;;;;25.17;19.88;;;11.80;85.10;;;;;;6139380;23;20176;-87
2022/04/23 18:39:05;;;;;;;23.38;18.70;;;11.80;86.20;;;;;;6202934;22;20168;-88
2022/04/23 18:45:24;;;;;;;25.48;18.65;;;11.80;86.20;;;;;;6287796;22;20163;-89
2022/04/23 18:48:00;;;;;;;21.42;17.98;;;11.80;86.80;;;;;;6287429;22;20279;-87
2022/04/23 18:50:28;;;;;;;22.80;19.08;;;11.70;86.80;;;;;;6309261;22;20187;-87
2022/04/23 18:52:59;;;;;;;22.67;18.42;;;11.70;87.60;;;;;;6291488;22;20180;-87
2022/04/23 18:55:26;;;;;;;21.50;18.65;;;11.60;87.90;;;;;;6317390;22;20573;-86
2022/04/23 18:58:17;;;;;;;23.05;18.75;;;11.60;88.20;;;;;;6318444;22;20208;-87
2022/04/23 19:00:54;;;;;;;22.10;18.55;;;11.60;87.90;;;;;;6318422;22;20176;-87
2022/04/23 19:03:23;;;;;;;23.02;18.80;;;11.60;88.90;;;;;;6318472;22;20288;-87
2022/04/23 19:09:13;;;;;;;24.30;18.95;;;11.60;89.30;;;;;;6317479;22;20190;-87
2022/04/23 19:12:16;;;;;;;26.48;19.25;;;11.60;89.50;;;;;;6291649;22;20156;-87
2022/04/23 19:14:43;;;;;;;23.55;18.38;;;11.60;89.80;;;;;;6317104;22;20211;-88
2022/04/23 19:17:25;;;;;;;22.50;18.60;;;11.60;89.70;;;;;;6319181;22;20164;-87
2022/04/23 19:19:52;;;;;;;21.65;18.65;;;11.60;89.30;;;;;;6316587;22;20215;-88
2022/04/23 19:35:49;;;;;;;23.65;19.35;;;11.30;90.60;;;;;;6322893;22;20230;-93
2022/04/23 19:38:22;;;;;;;24.27;18.92;;;11.30;90.60;;;;;;6320329;22;20631;-91
2022/04/23 19:40:58;;;;;;;25.15;20.02;;;11.30;90.60;;;;;;6320309;22;20195;-92
2022/04/23 19:43:52;;;;;;;23.25;18.50;;;11.20;90.60;;;;;;6320170;22;20620;-91
2022/04/23 19:46:48;;;;;;;23.23;18.77;;;11.10;90.90;;;;;;6296541;22;20274;-91
2022/04/23 20:01:43;;;;;;;24.80;18.98;;;10.70;92.20;;;;;;6177962;23;20215;-92
2022/04/23 20:08:10;;;;;;;24.08;20.25;;;10.70;92.40;;;;;;6140869;23;20163;-92
2022/04/23 20:17:22;;;;;;;23.20;19.50;;;10.50;93.00;;;;;;6056070;23;20177;-92
2022/04/23 20:20:22;;;;;;;25.02;20.08;;;10.50;92.90;;;;;;6044004;23;20184;-92
2022/04/23 20:23:14;;;;;;;24.05;19.80;;;10.50;93.00;;;;;;6059058;23;20173;-92
2022/04/23 20:25:41;;;;;;;28.58;20.25;;;10.50;93.10;;;;;;6046066;23;20204;-91
2022/04/23 20:28:10;;;;;;;25.65;21.05;;;10.40;93.20;;;;;;6070394;23;20197;-92
2022/04/23 20:33:29;;;;;;;27.13;20.67;;;10.30;93.80;;;;;;6120518;23;20232;-92
2022/04/23 20:39:00;;;;;;;25.98;20.77;;;10.20;94.10;;;;;;6128333;23;20171;-91
2022/04/23 20:41:41;;;;;;;25.92;20.33;;;10.10;94.40;;;;;;6130325;23;20631;-91
2022/04/23 20:44:34;;;;;;;24.55;20.67;;;10.10;94.50;;;;;;6126963;23;20219;-92
2022/04/23 20:50:40;;;;;;;26.23;21.02;;;10.10;94.80;;;;;;6215217;23;20188;-91
2022/04/23 20:53:34;;;;;;;26.58;21.42;;;10.10;94.70;;;;;;6214244;23;20202;-91
2022/04/23 20:56:02;;;;;;;28.35;20.75;;;10.10;94.70;;;;;;6218177;23;20879;-91
2022/04/23 20:58:30;;;;;;;26.75;21.70;;;10.10;94.90;;;;;;6191949;23;20240;-91
2022/04/23 21:00:56;;;;;;;27.80;22.33;;;10.00;95.10;;;;;;6216480;23;20249;-91
2022/04/23 21:03:30;;;;;;;27.98;22.05;;;10.00;94.90;;;;;;6193256;22;20184;-91
2022/04/23 21:06:00;;;;;;;28.60;21.88;;;10.00;95.00;;;;;;6314374;22;20204;-90
2022/04/23 21:08:31;;;;;;;30.13;22.13;;;10.00;95.20;;;;;;6312626;22;20279;-90
2022/04/23 21:11:52;;;;;;;28.60;21.52;;;9.90;95.60;;;;;;6216805;23;20169;-92
2022/04/23 21:14:52;;;;;;;26.92;21.40;;;9.90;95.90;;;;;;6220328;23;20174;-91
2022/04/23 21:17:40;;;;;;;26.38;21.98;;;9.80;96.10;;;;;;6224005;23;20242;-90
2022/04/23 21:22:59;;;;;;;26.45;21.60;;;9.80;96.10;;;;;;6219614;23;20202;-90
2022/04/23 21:25:26;;;;;;;27.23;22.48;;;9.80;96.10;;;;;;6219990;23;20241;-91
2022/04/23 21:27:59;;;;;;;26.95;21.30;;;9.70;96.10;;;;;;6198968;23;20249;-91
2022/04/23 21:31:01;;;;;;;26.45;21.15;;;9.80;96.10;;;;;;6221658;23;20209;-91
2022/04/23 21:33:29;;;;;;;26.20;21.42;;;9.80;96.10;;;;;;6220848;23;20216;-91
2022/04/23 21:38:40;;;;;;;27.75;22.50;;;9.80;96.10;;;;;;6248909;23;20176;-91
2022/04/23 21:47:07;;;;;;;28.30;22.88;;;9.90;96.10;;;;;;6263170;23;20200;-91
2022/04/23 21:49:37;;;;;;;31.27;22.77;;;9.90;96.10;;;;;;6255583;23;20409;-91
2022/04/23 22:01:22;;;;;;;28.75;23.23;;;10.10;95.70;;;;;;6015824;23;20187;-91
2022/04/23 22:03:51;;;;;;;28.38;23.15;;;10.20;95.40;;;;;;6020881;23;20175;-90
2022/04/23 22:06:23;;;;;;;28.40;23.10;;;10.20;95.50;;;;;;6017693;23;20537;-91
2022/04/23 22:09:06;;;;;;;27.88;23.30;;;10.20;95.40;;;;;;6031924;23;20185;-92
2022/04/23 22:11:55;;;;;;;27.55;22.45;;;10.10;95.60;;;;;;6083554;23;20241;-92
2022/04/23 22:17:23;;;;;;;28.95;22.33;;;10.10;95.70;;;;;;5968429;24;20180;-90
2022/04/23 22:19:53;;;;;;;28.40;23.23;;;10.10;95.70;;;;;;5962185;24;20184;-90
2022/04/23 22:22:41;;;;;;;27.58;22.45;;;10.10;95.70;;;;;;5961772;24;20188;-92
2022/04/23 22:25:24;;;;;;;26.48;22.23;;;10.10;95.70;;;;;;6041782;23;20196;-91
2022/04/23 22:27:53;;;;;;;28.05;23.50;;;10.10;95.70;;;;;;6166749;23;20175;-92
2022/04/23 22:30:21;;;;;;;30.67;24.17;;;10.20;95.80;;;;;;6191475;23;20218;-90
2022/04/23 22:33:41;;;;;;;29.05;24.25;;;10.20;95.80;;;;;;6192191;23;20550;-90
2022/04/23 22:36:17;;;;;;;28.83;23.08;;;10.20;95.60;;;;;;6190305;23;20194;-91
2022/04/23 22:38:59;;;;;;;27.10;23.30;;;10.20;95.80;;;;;;6191684;23;20241;-90
2022/04/23 22:41:30;;;;;;;30.60;23.75;;;10.10;95.80;;;;;;6245011;22;20200;-90
2022/04/23 22:43:57;;;;;;;28.05;23.52;;;10.10;95.70;;;;;;6317103;22;20215;-90
2022/04/23 22:46:46;;;;;;;27.83;22.65;;;10.20;95.80;;;;;;6317422;22;20389;-91
2022/04/23 22:49:29;;;;;;;29.90;23.20;;;10.10;95.70;;;;;;6288966;22;20214;-90
2022/04/23 22:52:34;;;;;;;29.60;23.63;;;10.20;95.80;;;;;;6289711;22;20240;-91
2022/04/23 22:55:28;;;;;;;29.65;23.98;;;10.20;95.80;;;;;;6314691;22;20188;-90
2022/04/23 22:57:57;;;;;;;29.58;23.95;;;10.10;95.70;;;;;;6313183;22;20164;-90
2022/04/23 23:00:24;;;;;;;28.17;24.25;;;10.00;95.70;;;;;;6316011;22;20179;-90
2022/04/23 23:02:53;;;;;;;31.55;26.08;;;10.00;95.90;;;;;;6288001;22;20191;-90
2022/04/23 23:05:24;;;;;;;30.42;24.50;;;10.00;96.00;;;;;;6322497;22;20184;-91
2022/04/23 23:08:07;;;;;;;31.77;25.55;;;9.80;96.90;;;;;;6321964;22;20156;-91
2022/04/23 23:10:38;;;;;;;34.20;26.92;;;9.70;97.20;;;;;;6320264;22;20247;-91
2022/04/23 23:22:07;;;;;;;33.85;26.25;;;9.50;98.10;;;;;;6055748;23;20181;-91
2022/04/23 23:24:58;;;;;;;33.35;26.65;;;9.50;98.40;;;;;;6053615;23;20241;-92
2022/04/23 23:28:04;;;;;;;31.65;26.00;;;9.50;98.30;;;;;;6028079;23;20188;-91
2022/04/23 23:31:10;;;;;;;34.80;27.48;;;9.50;98.20;;;;;;6071287;23;20195;-90
2022/04/23 23:36:59;;;;;;;36.95;26.77;;;9.40;98.60;;;;;;6080558;23;20180;-90
2022/04/23 23:39:35;;;;;;;32.75;26.13;;;9.30;98.70;;;;;;6053925;23;20188;-91
2022/04/23 23:42:06;;;;;;;33.03;25.48;;;9.30;98.90;;;;;;6078826;23;20571;-90
2022/04/23 23:44:41;;;;;;;32.90;26.08;;;9.30;99.00;;;;;;6053735;23;20252;-91
2022/04/23 23:47:52;;;;;;;31.58;26.02;;;9.30;99.00;;;;;;6052642;23;20275;-91
2022/04/23 23:50:54;;;;;;;32.42;25.25;;;9.30;99.10;;;;;;6076180;23;20753;-91
2022/04/23 23:53:37;;;;;;;31.60;25.92;;;9.30;99.10;;;;;;6118746;23;20220;-91
2022/04/23 23:56:34;;;;;;;31.75;25.38;;;9.30;99.10;;;;;;6164411;23;20182;-91
2022/04/23 23:59:02;;;;;;;33.42;25.98;;;9.40;99.00;;;;;;6163554;23;20257;-91
